Latest Weather Observations for Dartmoor

IDV60801

Issued at 9:31 am EDT Saturday 20 December 2014 (issued every 30 minutes, with the page automatically refreshed every 10 minutes)

About weather observations | Map of weather stations | Latest weather observations for VIC | Other Formats
Station Details ID: 090194 Name: DARTMOOR Lat: -37.92 Lon: 141.26 Height: 51.0 m
Data from the previous 72 hours. | See also: Recent months at Dartmoor
Date/Time
EDT
Temp
°C
App
Temp
°C
Dew
Point
Rel
Hum
%
Delta-T
°C
Wind Press
QNH
hPa
Press
MSL
hPa
Rain
since 9 am
mm
Dir
 
Spd
km/h
Gust
km/h
Spd
kts
Gust
kts
20/09:30am 16.5 15.1 12.1 75 2.4 WSW 11 17 6 9 1020.1 1020.0 0.0
20/09:00am 15.0 16.4 14.5 97 0.3 CALM 0 6 0 3 1020.1 1020.0 0.0
20/08:30am 13.0 13.9 13.0 100 0.0 CALM 0 0 0 0 1019.7 1019.6 0.0
20/08:00am 11.7 12.2 11.7 100 0.0 CALM 0 0 0 0 1019.3 1019.2 0.0
20/07:30am 10.3 10.4 10.3 100 0.0 CALM 0 0 0 0 1018.9 1018.8 0.0
20/07:00am 9.5 9.4 9.5 100 0.0 CALM 0 0 0 0 1018.7 1018.6 0.0
20/06:30am 9.0 8.8 9.0 100 0.0 CALM 0 0 0 0 1018.6 1018.5 0.0
20/06:00am 8.8 8.5 8.8 100 0.0 CALM 0 0 0 0 1018.4 1018.3 0.0
20/05:30am 9.2 9.0 9.2 100 0.0 CALM 0 0 0 0 1018.4 1018.3 0.0
20/05:00am 9.2 9.0 9.2 100 0.0 CALM 0 0 0 0 1018.3 1018.2 0.0
20/04:30am 9.5 9.4 9.5 100 0.0 CALM 0 0 0 0 1018.3 1018.2 0.0
20/04:00am 9.6 9.5 9.6 100 0.0 CALM 0 0 0 0 1018.5 1018.4 0.0
20/03:30am 9.2 9.0 9.2 100 0.0 CALM 0 0 0 0 1018.6 1018.5 0.0
20/03:00am 9.4 9.3 9.4 100 0.0 CALM 0 0 0 0 1018.8 1018.7 0.0
20/02:30am 9.7 9.7 9.7 100 0.0 CALM 0 0 0 0 1019.1 1019.0 0.0
20/02:00am 10.1 10.2 10.1 100 0.0 CALM 0 0 0 0 1019.3 1019.2 0.0
20/01:30am 10.7 10.9 10.7 100 0.0 CALM 0 2 0 1 1019.7 1019.6 0.0
20/01:00am 11.0 10.2 11.0 100 0.0 NNW 6 7 3 4 1019.8 1019.7 0.0
20/12:30am 11.2 11.2 11.2 100 0.0 NNW 2 6 1 3 1020.1 1020.0 0.0
20/12:00am 11.8 12.4 11.8 100 0.0 CALM 0 0 0 0 1020.3 1020.2 0.0
 
Date/Time
EDT
Temp
°C
App
Temp
°C
Dew
Point
Rel
Hum
%
Delta-T
°C
Wind Press
QNH
hPa
Press
MSL
hPa
Rain
since 9 am
mm
Dir
 
Spd
km/h
Gust
km/h
Spd
kts
Gust
kts
19/11:30pm 11.4 11.4 11.2 99 0.1 WNW 2 4 1 2 1020.5 1020.4 0.0
19/11:00pm 11.3 11.4 10.2 93 0.6 CALM 0 0 0 0 1020.7 1020.6 0.0
19/10:30pm 11.9 11.8 9.3 84 1.3 CALM 0 0 0 0 1020.6 1020.5 0.0
19/10:00pm 12.8 12.7 9.3 79 1.8 CALM 0 0 0 0 1020.6 1020.5 0.0
19/09:30pm 13.6 12.7 9.1 74 2.3 SW 4 6 2 3 1020.5 1020.4 0.0
19/09:00pm 14.4 12.9 9.0 70 2.7 SW 7 9 4 5 1020.6 1020.5 0.0
19/08:30pm 15.5 13.5 8.5 63 3.5 WSW 9 19 5 10 1020.6 1020.5 0.0
19/08:00pm 16.6 13.9 8.8 60 4.0 SW 13 20 7 11 1020.4 1020.3 0.0
19/07:30pm 16.9 13.2 8.1 56 4.5 SW 17 22 9 12 1020.2 1020.1 0.0
19/07:00pm 16.9 12.9 8.1 56 4.5 WSW 19 24 10 13 1020.0 1019.9 0.0
19/06:30pm 18.1 13.9 8.1 52 5.1 SW 20 33 11 18 1019.7 1019.6 0.0
19/06:00pm 18.1 13.9 8.1 52 5.1 SW 20 32 11 17 1019.5 1019.4 0.0
19/05:30pm 18.6 14.3 7.7 49 5.6 SW 20 30 11 16 1019.6 1019.5 0.0
19/05:00pm 18.1 12.1 6.9 48 5.6 SW 28 39 15 21 1019.6 1019.5 0.0
19/04:30pm 18.4 12.7 6.9 47 5.8 SW 26 39 14 21 1019.4 1019.3 0.0
19/04:00pm 19.5 15.1 7.6 46 6.1 SW 20 39 11 21 1019.4 1019.3 0.0
19/03:30pm 20.1 15.9 8.4 47 6.1 SW 20 32 11 17 1019.4 1019.3 0.0
19/03:00pm 19.9 15.7 8.3 47 6.0 SW 20 37 11 20 1019.3 1019.2 0.0
19/02:30pm 19.2 15.4 7.6 47 5.9 WSW 17 32 9 17 1019.4 1019.3 0.0
19/02:00pm 18.6 14.5 6.1 44 6.2 SW 17 32 9 17 1019.3 1019.2 0.0
19/01:30pm 18.9 15.1 7.7 48 5.7 SW 17 30 9 16 1019.2 1019.1 0.0
19/01:00pm 18.6 15.1 8.6 52 5.2 WSW 17 32 9 17 1019.4 1019.3 0.0
19/12:30pm 17.4 13.6 7.5 52 5.0 WSW 17 26 9 14 1019.4 1019.3 0.0
19/12:00pm 17.8 14.1 8.1 53 4.9 SW 17 28 9 15 1019.3 1019.2 0.0
19/11:30am 17.5 14.7 8.6 56 4.6 SW 13 19 7 10 1019.3 1019.2 0.0
19/11:00am 16.4 13.6 8.6 60 4.0 SW 13 20 7 11 1019.3 1019.2 0.0
19/10:30am 17.4 15.0 10.1 62 3.9 SW 13 22 7 12 1019.3 1019.2 0.0
19/10:00am 15.7 13.3 10.2 70 2.9 SW 13 20 7 11 1019.2 1019.1 0.0
19/09:30am 15.1 13.6 10.5 74 2.4 WSW 9 17 5 9 1019.1 1019.0 0.0
19/09:00am 14.0 14.0 13.5 97 0.3 W 6 9 3 5 1018.7 1018.6 4.2
19/08:30am 12.7 12.4 12.7 100 0.0 W 6 7 3 4 1018.4 1018.3 4.2
19/08:00am 11.7 11.9 11.7 100 0.0 NNW 2 7 1 4 1018.1 1018.0 4.2
19/07:30am 9.4 9.3 9.4 100 0.0 CALM 0 0 0 0 1017.8 1017.7 4.2
19/07:00am 8.0 7.5 8.0 100 0.0 CALM 0 0 0 0 1017.3 1017.2 4.2
19/06:30am 7.1 6.4 7.1 100 0.0 CALM 0 0 0 0 1017.0 1016.9 4.2
19/06:00am 6.5 5.7 6.5 100 0.0 CALM 0 0 0 0 1016.8 1016.7 4.2
19/05:30am 6.3 5.5 6.3 100 0.0 CALM 0 0 0 0 1016.5 1016.4 4.2
19/05:00am 5.8 4.8 5.8 100 0.0 CALM 0 0 0 0 1016.3 1016.2 4.2
19/04:30am 5.6 4.6 5.6 100 0.0 CALM 0 0 0 0 1016.2 1016.1 4.2
19/04:00am 6.0 5.1 6.0 100 0.0 CALM 0 0 0 0 1016.0 1015.9 4.2
19/03:30am 6.7 5.9 6.7 100 0.0 CALM 0 0 0 0 1015.8 1015.7 4.2
19/03:00am 7.4 6.8 7.4 100 0.0 CALM 0 0 0 0 1015.8 1015.7 4.2
19/02:30am 8.0 5.5 8.0 100 0.0 NW 11 13 6 7 1015.7 1015.6 4.2
19/02:00am 8.3 5.8 8.3 100 0.0 WNW 11 11 6 6 1015.9 1015.8 4.2
19/01:30am 8.3 6.2 8.3 100 0.0 WNW 9 9 5 5 1015.9 1015.8 4.2
19/01:00am 8.5 6.1 8.5 100 0.0 WNW 11 13 6 7 1015.9 1015.8 4.2
19/12:30am 8.9 6.6 8.9 100 0.0 NW 11 13 6 7 1015.7 1015.6 4.2
19/12:00am 9.4 7.2 9.4 100 0.0 NW 11 13 6 7 1015.6 1015.5 4.2
 
Date/Time
EDT
Temp
°C
App
Temp
°C
Dew
Point
Rel
Hum
%
Delta-T
°C
Wind Press
QNH
hPa
Press
MSL
hPa
Rain
since 9 am
mm
Dir
 
Spd
km/h
Gust
km/h
Spd
kts
Gust
kts
18/11:30pm 9.6 7.5 9.6 100 0.0 WNW 11 11 6 6 1015.3 1015.2 4.2
18/11:00pm 10.3 9.2 9.8 97 0.3 WNW 6 7 3 4 1015.3 1015.2 4.2
18/10:30pm 11.5 10.4 9.9 90 0.8 WSW 6 7 3 4 1015.1 1015.0 4.2
18/10:00pm 12.1 10.7 9.7 85 1.2 WSW 7 9 4 5 1014.8 1014.7 4.2
18/09:30pm 13.0 11.8 9.4 79 1.8 W 6 9 3 5 1014.4 1014.3 4.2
18/09:00pm 13.7 11.8 9.2 74 2.3 SW 9 17 5 9 1014.2 1014.1 4.2
18/08:30pm 14.4 11.1 9.4 72 2.6 SW 17 28 9 15 1013.9 1013.8 4.2
18/08:00pm 14.8 10.9 8.7 67 3.1 SW 19 30 10 16 1013.4 1013.3 4.2
18/07:30pm 15.8 11.1 7.8 59 4.0 SW 22 33 12 18 1012.8 1012.7 4.2
18/07:00pm 16.7 12.2 8.4 58 4.2 SW 22 35 12 19 1012.4 1012.3 4.2
18/06:30pm 17.2 12.3 8.4 56 4.5 WSW 24 33 13 18 1011.9 1011.8 4.2
18/06:00pm 17.7 13.3 9.1 57 4.5 SW 22 44 12 24 1011.5 1011.4 4.2
18/05:30pm 17.4 12.9 8.5 56 4.6 WSW 22 33 12 18 1011.2 1011.1 4.2
18/05:00pm 17.2 12.5 10.8 66 3.4 SW 26 41 14 22 1010.9 1010.8 4.2
18/04:30pm 15.5 14.5 15.5 100 0.0 SW 15 30 8 16 1010.8 1010.7 4.2
18/04:00pm 13.6 10.6 13.6 100 0.0 W 22 41 12 22 1010.6 1010.5 4.2
18/03:30pm 14.4 12.6 14.4 100 0.0 WSW 17 33 9 18 1009.8 1009.7 4.0
18/03:07pm 15.9 12.9 12.5 80 1.9 SW 20 44 11 24 1009.2 1009.1 3.4
18/03:00pm 17.3 16.0 13.8 80 2.0 SW 13 24 7 13 1009.0 1008.9 3.4
18/02:30pm 15.9 14.6 15.9 100 0.0 WSW 17 26 9 14 1009.4 1009.3 3.4
18/02:00pm 14.2 10.6 13.1 93 0.6 WSW 24 35 13 19 1009.3 1009.2 3.4
18/01:30pm 17.5 14.3 12.0 70 3.0 WSW 20 33 11 18 1008.4 1008.3 3.0
18/01:00pm 16.9 15.3 14.9 88 1.2 WSW 17 28 9 15 1008.1 1008.0 3.0
18/12:30pm 15.6 14.6 15.6 100 0.0 WSW 15 22 8 12 1008.0 1007.9 3.0
18/12:00pm 15.1 13.2 15.1 100 0.0 WSW 19 35 10 19 1007.5 1007.5 3.0
18/11:30am 13.9 11.5 13.9 100 0.0 WSW 19 33 10 18 1007.3 1007.3 2.8
18/11:00am 14.3 11.1 14.3 100 0.0 WNW 24 43 13 23 1006.9 1006.9 1.4
18/10:30am 18.9 15.6 12.9 68 3.4 NW 22 33 12 18 1006.2 1006.2 0.0
18/10:00am 17.4 13.6 12.3 72 2.8 NW 24 35 13 19 1006.5 1006.5 0.0
18/09:30am 16.8 14.0 13.1 79 2.1 NW 20 32 11 17 1006.7 1006.7 0.0
18/09:00am 15.6 12.9 12.9 84 1.5 NNW 19 28 10 15 1006.4 1006.4 0.0
18/08:30am 14.4 11.4 12.1 86 1.2 NNW 19 28 10 15 1006.3 1006.3 0.0
18/08:00am 14.3 12.2 12.5 89 1.0 NNW 15 30 8 16 1006.0 1006.0 0.0
18/07:30am 12.9 11.8 12.1 95 0.4 NNW 9 15 5 8 1006.0 1006.0 0.0
18/07:00am 11.0 10.2 11.0 100 0.0 NW 6 11 3 6 1005.9 1005.9 0.0
18/06:30am 9.7 8.3 9.7 100 0.0 N 7 13 4 7 1005.5 1005.5 0.0
18/06:00am 8.6 7.1 8.6 100 0.0 NNW 6 7 3 4 1005.6 1005.6 0.0
18/05:30am 8.6 7.1 8.6 100 0.0 N 6 7 3 4 1005.3 1005.3 0.0
18/05:00am 8.1 6.3 8.1 100 0.0 N 7 9 4 5 1005.4 1005.4 0.0
18/04:30am 8.3 6.8 8.3 100 0.0 N 6 7 3 4 1005.3 1005.3 0.0
18/04:00am 8.2 6.5 8.2 100 0.0 N 7 9 4 5 1005.4 1005.4 0.0
18/03:30am 8.0 6.8 8.0 100 0.0 NE 4 6 2 3 1005.7 1005.7 0.0
18/03:00am 7.8 7.3 7.8 100 0.0 CALM 0 0 0 0 1006.3 1006.3 0.0
18/02:30am 7.8 7.3 7.8 100 0.0 CALM 0 0 0 0 1006.3 1006.3 0.0
18/02:00am 8.1 7.7 8.1 100 0.0 CALM 0 0 0 0 1006.6 1006.6 0.0
18/01:30am 8.4 8.0 8.4 100 0.0 CALM 0 0 0 0 1007.0 1007.0 0.0
18/01:00am 8.8 8.5 8.7 99 0.0 CALM 0 0 0 0 1007.4 1007.4 0.0
18/12:30am 9.1 8.7 8.3 95 0.4 CALM 0 0 0 0 1007.4 1007.4 0.0
18/12:00am 9.1 8.4 7.1 87 0.9 CALM 0 0 0 0 1007.4 1007.4 0.0
 
Date/Time
EDT
Temp
°C
App
Temp
°C
Dew
Point
Rel
Hum
%
Delta-T
°C
Wind Press
QNH
hPa
Press
MSL
hPa
Rain
since 9 am
mm
Dir
 
Spd
km/h
Gust
km/h
Spd
kts
Gust
kts
17/11:30pm 9.9 9.2 6.8 81 1.5 CALM 0 0 0 0 1007.3 1007.3 0.0
17/11:00pm 10.4 9.6 6.5 77 1.8 CALM 0 0 0 0 1007.6 1007.6 0.0
17/10:30pm 11.7 11.0 6.8 72 2.3 CALM 0 0 0 0 1007.8 1007.8 0.0
17/10:00pm 13.1 12.3 6.7 65 3.1 CALM 0 0 0 0 1008.0 1007.9 0.0
17/09:30pm 13.5 12.7 6.4 62 3.4 CALM 0 0 0 0 1008.0 1007.9 0.0
17/09:00pm 15.3 13.3 6.3 55 4.4 W 6 9 3 5 1007.8 1007.8 0.0
17/08:30pm 17.5 15.9 6.4 48 5.5 WSW 4 9 2 5 1007.8 1007.8 0.0
17/08:00pm 18.5 15.8 5.7 43 6.3 W 9 13 5 7 1007.7 1007.7 0.0
17/07:30pm 19.5 16.0 5.6 40 6.8 W 13 19 7 10 1007.5 1007.5 0.0
17/07:00pm 18.9 14.8 6.4 44 6.2 SE 17 20 9 11 1007.1 1007.1 0.0
17/06:30pm 18.1 14.5 6.9 48 5.6 SSE 15 20 8 11 1007.1 1007.1 0.0
17/06:00pm 17.9 14.5 7.6 51 5.2 S 15 24 8 13 1007.3 1007.3 0.0
17/05:30pm 17.9 14.2 7.9 52 5.1 SSW 17 22 9 12 1007.6 1007.6 0.0
17/05:00pm 19.3 15.2 8.0 48 5.8 SSW 19 28 10 15 1007.8 1007.8 0.0
17/04:30pm 19.3 15.0 8.0 48 5.8 SSW 20 30 11 16 1008.2 1008.1 0.0
17/04:00pm 18.7 14.0 7.8 49 5.6 SSW 22 33 12 18 1008.3 1008.2 0.0
17/03:30pm 19.8 15.9 7.2 44 6.4 SSW 17 24 9 13 1008.3 1008.2 0.0
17/03:00pm 18.9 15.0 7.0 46 6.0 SSW 17 26 9 14 1008.4 1008.3 0.0
17/02:30pm 20.3 16.2 8.0 45 6.4 S 19 24 10 13 1008.6 1008.5 0.0
17/02:00pm 18.8 14.6 8.2 50 5.5 SW 20 28 11 15 1009.0 1008.9 0.0
17/01:30pm 18.6 15.7 8.0 50 5.4 SW 13 26 7 14 1009.1 1009.0 0.0
17/01:00pm 18.5 13.9 5.7 43 6.3 W 19 26 10 14 1009.3 1009.2 0.0
17/12:30pm 17.6 14.0 6.8 49 5.4 WSW 15 22 8 12 1009.4 1009.3 0.0
17/12:00pm 17.5 14.3 6.7 49 5.4 W 13 19 7 10 1009.5 1009.4 0.0
17/11:30am 17.0 14.1 6.5 50 5.2 W 11 22 6 12 1009.6 1009.5 0.0
17/11:00am 16.3 13.1 6.7 53 4.7 W 13 24 7 13 1009.6 1009.5 0.0
17/10:30am 17.0 14.6 8.7 58 4.3 WNW 11 19 6 10 1009.8 1009.7 0.0
17/10:00am 16.0 13.4 9.4 65 3.4 NW 13 19 7 10 1010.1 1010.0 0.0

Other Formats:

Comma delimited format used in spreadsheet applications
http://www.bom.gov.au/fwo/IDV60801/IDV60801.95822.axf

JavaScript Object Notation format (JSON) in row-major order
http://www.bom.gov.au/fwo/IDV60801/IDV60801.95822.json